createdAt,value
2023-01-18T00:01:01.252Z,0.63
2023-01-18T00:03:28.616Z,0.65
2023-01-18T00:05:55.593Z,0.63
2023-01-18T00:08:22.533Z,0.54
2023-01-18T00:10:49.474Z,0.76
2023-01-18T00:13:16.471Z,0.70
2023-01-18T00:15:43.480Z,0.58
2023-01-18T00:18:10.478Z,0.77
2023-01-18T00:20:37.468Z,0.80
2023-01-18T00:23:04.436Z,0.75
2023-01-18T00:25:31.426Z,0.73
2023-01-18T00:27:58.465Z,0.90
2023-01-18T00:30:29.133Z,0.90
2023-01-18T00:32:59.272Z,0.69
2023-01-18T00:35:26.658Z,0.85
2023-01-18T00:37:54.484Z,0.75
2023-01-18T00:40:22.773Z,0.76
2023-01-18T00:43:08.247Z,0.99
2023-01-18T00:45:35.319Z,0.96
2023-01-18T00:48:03.765Z,0.96
2023-01-18T00:50:30.728Z,0.96
2023-01-18T00:53:00.358Z,0.77
2023-01-18T00:55:27.921Z,0.73
2023-01-18T00:57:54.920Z,0.39
2023-01-18T01:00:23.747Z,0.68
2023-01-18T01:02:51.864Z,0.56
2023-01-18T01:05:41.379Z,0.68
2023-01-18T01:08:08.583Z,0.68
2023-01-18T01:10:35.938Z,0.65
2023-01-18T01:13:21.374Z,0.81
2023-01-18T01:16:07.154Z,0.73
2023-01-18T01:18:52.829Z,0.58
2023-01-18T01:21:38.445Z,0.24
2023-01-18T01:24:24.104Z,0.74
2023-01-18T01:26:51.096Z,0.74
2023-01-18T01:29:18.049Z,0.72
2023-01-18T01:31:44.970Z,0.75
2023-01-18T01:34:11.946Z,0.81
2023-01-18T01:36:38.892Z,0.47
2023-01-18T01:39:07.259Z,0.66
2023-01-18T01:41:35.234Z,0.35
2023-01-18T01:44:25.031Z,0.24
2023-01-18T01:47:16.531Z,0.52
2023-01-18T01:49:48.324Z,0.50
2023-01-18T01:52:25.254Z,0.54
2023-01-18T01:55:06.931Z,0.51
2023-01-18T01:57:43.484Z,0.58
2023-01-18T02:00:20.956Z,0.43
2023-01-18T02:02:53.471Z,0.63
2023-01-18T02:05:20.940Z,0.73
2023-01-18T02:07:49.096Z,0.62
2023-01-18T02:10:16.574Z,0.48
2023-01-18T02:12:46.557Z,0.51
2023-01-18T02:15:13.896Z,0.47
2023-01-18T02:18:30.316Z,0.60
2023-01-18T02:21:11.806Z,0.59
2023-01-18T02:23:50.913Z,0.73
2023-01-18T02:26:36.377Z,0.67
2023-01-18T02:29:19.481Z,0.60
2023-01-18T02:32:08.508Z,0.72
2023-01-18T02:34:55.686Z,0.82
2023-01-18T02:37:47.110Z,0.79
2023-01-18T02:40:19.928Z,0.83
2023-01-18T02:43:07.371Z,0.70
2023-01-18T02:45:57.654Z,0.80
2023-01-18T02:48:30.540Z,0.74
2023-01-18T02:50:57.530Z,0.81
2023-01-18T02:53:24.478Z,0.75
2023-01-18T02:55:56.615Z,0.84
2023-01-18T02:58:30.802Z,0.60
2023-01-18T03:01:05.501Z,0.74
2023-01-18T03:03:32.807Z,0.59
2023-01-18T03:06:02.174Z,0.77
2023-01-18T03:08:37.548Z,0.49
2023-01-18T03:11:24.876Z,0.70
2023-01-18T03:14:09.571Z,0.78
2023-01-18T03:17:03.609Z,0.66
2023-01-18T03:20:03.233Z,0.56
2023-01-18T03:22:57.994Z,0.69
2023-01-18T03:25:36.893Z,0.71
2023-01-18T03:28:25.464Z,0.89
2023-01-18T03:31:15.211Z,0.79
2023-01-18T03:33:48.159Z,0.96
2023-01-18T03:36:19.941Z,1.03
2023-01-18T03:38:52.928Z,1.05
2023-01-18T03:41:22.134Z,1.06
2023-01-18T03:43:52.476Z,0.99
2023-01-18T03:46:22.206Z,1.02
2023-01-18T03:48:49.377Z,1.05
2023-01-18T03:51:23.288Z,1.09
2023-01-18T03:54:15.656Z,1.04
2023-01-18T03:56:57.947Z,1.02
2023-01-18T03:59:30.148Z,1.11
2023-01-18T04:01:57.220Z,1.07
2023-01-18T04:04:24.218Z,1.14
2023-01-18T04:06:51.240Z,1.05
2023-01-18T04:09:18.170Z,1.13
2023-01-18T04:11:45.229Z,1.06
2023-01-18T04:14:12.253Z,1.20
2023-01-18T04:16:39.241Z,1.24
2023-01-18T04:19:08.775Z,1.19
2023-01-18T04:21:35.944Z,1.25
2023-01-18T04:24:02.951Z,0.87
2023-01-18T04:26:30.161Z,0.64
2023-01-18T04:28:57.112Z,1.15
2023-01-18T04:31:24.136Z,1.23
2023-01-18T04:33:51.769Z,1.08
2023-01-18T04:36:20.243Z,0.97
2023-01-18T04:38:47.306Z,1.11
2023-01-18T04:41:14.279Z,1.12
2023-01-18T04:43:41.248Z,1.08
2023-01-18T04:46:08.251Z,0.86
2023-01-18T04:48:35.305Z,1.02
2023-01-18T04:51:02.261Z,0.93
2023-01-18T04:53:29.206Z,1.06
2023-01-18T04:55:56.132Z,0.97
2023-01-18T04:58:23.192Z,1.01
2023-01-18T05:00:50.202Z,1.04
2023-01-18T05:03:17.231Z,1.05
2023-01-18T05:05:44.185Z,0.82
2023-01-18T05:08:11.860Z,0.99
2023-01-18T05:10:38.807Z,1.14
2023-01-18T05:13:05.853Z,1.08
2023-01-18T05:15:34.965Z,1.19
2023-01-18T05:18:02.721Z,1.23
2023-01-18T05:20:29.739Z,1.18
2023-01-18T05:22:56.932Z,1.22
2023-01-18T05:25:24.213Z,1.03
2023-01-18T05:27:51.435Z,1.02
2023-01-18T05:30:18.466Z,0.91
2023-01-18T05:32:45.418Z,1.08
2023-01-18T05:35:12.364Z,1.19
2023-01-18T05:37:39.310Z,0.97
2023-01-18T05:40:06.997Z,1.06
2023-01-18T05:42:33.939Z,1.18
2023-01-18T05:45:00.950Z,1.22
2023-01-18T05:47:28.007Z,1.16
2023-01-18T05:49:57.930Z,0.80
2023-01-18T05:52:24.911Z,1.04
2023-01-18T05:54:51.928Z,0.98
2023-01-18T05:57:18.873Z,0.96
2023-01-18T05:59:45.873Z,0.85
2023-01-18T06:02:12.874Z,0.46
2023-01-18T06:04:39.917Z,0.88
2023-01-18T06:07:06.959Z,0.65
2023-01-18T06:09:33.889Z,1.03
2023-01-18T06:12:00.792Z,1.00
2023-01-18T06:14:27.762Z,0.78
2023-01-18T06:16:54.748Z,0.66
2023-01-18T06:19:21.678Z,0.53
2023-01-18T06:21:48.623Z,0.58
2023-01-18T06:24:15.741Z,0.68
2023-01-18T06:26:42.709Z,0.51
2023-01-18T06:29:09.703Z,0.51
2023-01-18T06:31:36.723Z,0.53
2023-01-18T06:34:09.405Z,0.69
2023-01-18T06:36:37.572Z,0.70
2023-01-18T06:39:05.166Z,0.61
2023-01-18T06:41:32.199Z,0.62
2023-01-18T06:43:59.168Z,0.68
2023-01-18T06:46:26.192Z,0.52
2023-01-18T06:48:53.148Z,0.61
2023-01-18T06:51:20.501Z,0.59
2023-01-18T06:53:48.113Z,0.68
2023-01-18T06:56:15.138Z,0.65
2023-01-18T06:58:42.848Z,0.72
2023-01-18T07:01:09.950Z,0.69
2023-01-18T07:03:37.168Z,0.79
2023-01-18T07:06:05.964Z,0.55
2023-01-18T07:08:33.264Z,0.58
2023-01-18T07:11:06.117Z,0.49
2023-01-18T07:13:33.171Z,0.18
2023-01-18T07:16:02.103Z,0.39
2023-01-18T07:18:30.643Z,0.29
2023-01-18T07:21:07.216Z,0.65
2023-01-18T07:23:36.667Z,0.74
2023-01-18T07:26:05.635Z,0.69
2023-01-18T07:28:33.960Z,0.80
2023-01-18T07:31:01.601Z,0.70
2023-01-18T07:33:29.920Z,0.80
2023-01-18T07:35:58.395Z,0.82
2023-01-18T07:38:26.057Z,0.91
2023-01-18T07:41:05.788Z,0.76
2023-01-18T07:43:33.509Z,0.86
2023-01-18T07:46:01.685Z,0.88
2023-01-18T07:48:28.797Z,0.91
2023-01-18T07:50:57.898Z,0.98
2023-01-18T07:53:26.988Z,0.99
2023-01-18T07:55:55.077Z,0.98
2023-01-18T07:58:22.089Z,0.96
2023-01-18T08:00:49.080Z,1.03
2023-01-18T08:03:18.183Z,1.04
2023-01-18T08:05:47.356Z,0.94
2023-01-18T08:08:16.313Z,0.85
2023-01-18T08:10:43.729Z,0.89
2023-01-18T08:13:11.369Z,0.80
2023-01-18T08:15:39.443Z,0.87
2023-01-18T08:18:08.236Z,0.88
2023-01-18T08:20:35.513Z,1.07
2023-01-18T08:23:03.797Z,1.13
2023-01-18T08:25:33.536Z,1.09
2023-01-18T08:28:02.660Z,1.21
2023-01-18T08:30:33.568Z,1.26
2023-01-18T08:33:01.897Z,1.30
2023-01-18T08:35:32.056Z,1.31
2023-01-18T08:38:00.480Z,1.24
2023-01-18T08:40:28.630Z,1.21
2023-01-18T08:43:00.924Z,1.33
2023-01-18T08:45:29.357Z,1.21
2023-01-18T08:47:58.596Z,1.16
2023-01-18T08:50:25.631Z,1.11
2023-01-18T08:52:53.802Z,1.04
2023-01-18T08:55:22.411Z,1.29
2023-01-18T08:57:50.221Z,1.21
2023-01-18T09:00:17.957Z,1.16
2023-01-18T09:02:45.153Z,1.27
2023-01-18T09:05:12.229Z,1.25
2023-01-18T09:07:39.183Z,1.37
2023-01-18T09:10:09.115Z,1.17
2023-01-18T09:12:36.070Z,1.32
2023-01-18T09:15:03.231Z,1.25
2023-01-18T09:17:31.443Z,1.18
2023-01-18T09:19:59.413Z,1.31
2023-01-18T09:22:26.416Z,1.43
2023-01-18T09:24:53.396Z,1.38
2023-01-18T09:27:20.418Z,1.35
2023-01-18T09:29:52.302Z,1.31
2023-01-18T09:32:20.162Z,1.30
2023-01-18T09:34:50.720Z,1.31
2023-01-18T09:37:19.223Z,1.19
2023-01-18T09:39:51.904Z,1.29
2023-01-18T09:42:25.481Z,1.11
2023-01-18T09:44:56.724Z,1.20
2023-01-18T09:47:39.426Z,1.42
2023-01-18T09:50:17.865Z,1.55
2023-01-18T09:52:47.746Z,1.53
2023-01-18T09:55:33.299Z,1.52
2023-01-18T09:58:20.027Z,1.61
2023-01-18T10:00:49.600Z,1.56
2023-01-18T10:03:22.256Z,1.64
2023-01-18T10:06:09.082Z,1.66
2023-01-18T10:09:07.102Z,1.80
2023-01-18T10:11:47.371Z,1.47
2023-01-18T10:14:38.920Z,1.51
2023-01-18T10:17:14.186Z,1.52
2023-01-18T10:19:41.606Z,1.52
2023-01-18T10:22:19.534Z,1.54
2023-01-18T10:25:16.146Z,1.70
2023-01-18T10:28:25.330Z,1.65
2023-01-18T10:31:44.295Z,1.58
2023-01-18T10:34:18.721Z,1.62
2023-01-18T10:36:54.109Z,1.61
2023-01-18T10:39:36.094Z,1.52
2023-01-18T10:42:10.580Z,1.18
2023-01-18T10:44:37.607Z,1.59
2023-01-18T10:47:04.626Z,1.62
2023-01-18T10:49:42.884Z,1.63
2023-01-18T10:52:29.552Z,1.33
2023-01-18T10:55:01.825Z,1.40
2023-01-18T10:57:48.770Z,1.68
2023-01-18T11:00:21.740Z,1.69
2023-01-18T11:02:53.333Z,1.57
2023-01-18T11:05:38.204Z,1.68
2023-01-18T11:08:22.969Z,1.65
2023-01-18T11:10:59.406Z,1.24
2023-01-18T11:13:42.514Z,1.40
2023-01-18T11:16:23.525Z,1.34
2023-01-18T11:19:00.061Z,1.30
2023-01-18T11:21:41.181Z,1.13
2023-01-18T11:24:22.241Z,1.59
2023-01-18T11:27:06.115Z,1.51
2023-01-18T11:29:39.814Z,1.43
2023-01-18T11:32:24.077Z,1.24
2023-01-18T11:34:56.590Z,1.45
2023-01-18T11:37:36.549Z,1.28
2023-01-18T11:40:28.037Z,1.53
2023-01-18T11:43:03.859Z,1.35
2023-01-18T11:45:40.546Z,1.00
2023-01-18T11:48:17.367Z,1.57
2023-01-18T11:50:53.744Z,1.44
2023-01-18T11:53:43.761Z,1.51
2023-01-18T11:56:20.752Z,1.38
2023-01-18T11:58:49.663Z,1.42
2023-01-18T12:01:25.457Z,1.35
2023-01-18T12:03:56.774Z,1.33
2023-01-18T12:06:46.567Z,1.30
2023-01-18T12:09:59.997Z,1.37
2023-01-18T12:12:42.308Z,1.49
2023-01-18T12:15:29.310Z,1.52
2023-01-18T12:18:13.901Z,1.35
2023-01-18T12:20:59.092Z,0.88
2023-01-18T12:23:53.144Z,1.43
2023-01-18T12:26:20.165Z,1.50
2023-01-18T12:29:27.547Z,1.53
2023-01-18T12:32:13.291Z,1.52
2023-01-18T12:35:22.627Z,1.52
2023-01-18T12:37:53.232Z,1.42
2023-01-18T12:40:39.017Z,1.43
2023-01-18T12:43:15.194Z,1.49
2023-01-18T12:45:51.007Z,1.38
2023-01-18T12:48:36.141Z,1.33
2023-01-18T12:51:17.554Z,1.34
2023-01-18T12:53:50.172Z,1.23
2023-01-18T12:56:40.481Z,1.30
2023-01-18T12:59:28.952Z,1.11
2023-01-18T13:02:11.158Z,0.91
2023-01-18T13:04:53.804Z,1.35
2023-01-18T13:07:29.008Z,1.42
2023-01-18T13:09:57.023Z,1.34
2023-01-18T13:12:25.739Z,1.49
2023-01-18T13:15:17.061Z,1.57
2023-01-18T13:17:56.451Z,1.62
2023-01-18T13:20:37.366Z,1.41
2023-01-18T13:23:31.018Z,1.51
2023-01-18T13:26:20.038Z,1.39
2023-01-18T13:28:47.557Z,1.25
2023-01-18T13:31:14.754Z,1.29
2023-01-18T13:33:45.762Z,1.40
2023-01-18T13:36:17.400Z,1.42
2023-01-18T13:39:10.681Z,1.31
2023-01-18T13:41:37.632Z,1.40
2023-01-18T13:44:25.553Z,1.45
2023-01-18T13:46:57.178Z,1.49
2023-01-18T13:49:37.939Z,1.30
2023-01-18T13:52:35.687Z,1.43
2023-01-18T13:55:23.209Z,1.56
2023-01-18T13:57:55.541Z,1.45
2023-01-18T14:00:24.839Z,1.63
2023-01-18T14:02:56.876Z,1.71
2023-01-18T14:05:27.928Z,1.64
2023-01-18T14:08:01.060Z,1.68
2023-01-18T14:10:46.808Z,1.59
2023-01-18T14:13:18.347Z,1.63
2023-01-18T14:15:54.928Z,1.61
2023-01-18T14:18:25.442Z,1.63
2023-01-18T14:21:11.081Z,1.79
2023-01-18T14:23:40.982Z,1.79
2023-01-18T14:26:15.343Z,1.60
2023-01-18T14:28:54.535Z,1.76
2023-01-18T14:31:29.218Z,1.56
2023-01-18T14:33:56.448Z,1.66
2023-01-18T14:36:26.615Z,1.67
2023-01-18T14:39:13.834Z,1.77
2023-01-18T14:41:44.149Z,1.63
2023-01-18T14:44:20.747Z,1.74
2023-01-18T14:46:56.238Z,1.78
2023-01-18T14:49:31.292Z,1.73
2023-01-18T14:51:59.555Z,1.59
2023-01-18T14:54:26.748Z,1.51
2023-01-18T14:57:05.722Z,1.64
2023-01-18T14:59:33.937Z,1.54
2023-01-18T15:02:16.049Z,1.66
2023-01-18T15:04:47.479Z,1.51
2023-01-18T15:07:33.966Z,1.55
2023-01-18T15:10:01.042Z,1.76
2023-01-18T15:12:31.788Z,1.66
2023-01-18T15:15:17.192Z,1.72
2023-01-18T15:17:44.256Z,1.45
2023-01-18T15:20:15.016Z,1.17
2023-01-18T15:22:43.133Z,1.51
2023-01-18T15:25:26.354Z,1.62
2023-01-18T15:27:54.424Z,1.48
2023-01-18T15:30:24.740Z,1.53
2023-01-18T15:32:57.936Z,1.60
2023-01-18T15:35:25.873Z,1.54
2023-01-18T15:37:53.010Z,1.30
2023-01-18T15:40:19.984Z,1.48
2023-01-18T15:42:54.127Z,1.31
2023-01-18T15:45:24.409Z,1.29
2023-01-18T15:47:57.422Z,1.47
2023-01-18T15:50:31.093Z,1.45
2023-01-18T15:53:06.959Z,1.37
2023-01-18T15:55:38.703Z,1.27
2023-01-18T15:58:14.608Z,1.31
2023-01-18T16:00:53.945Z,1.17
2023-01-18T16:03:36.631Z,1.44
2023-01-18T16:06:15.265Z,1.39
2023-01-18T16:09:12.436Z,1.26
2023-01-18T16:11:53.223Z,1.35
2023-01-18T16:14:29.287Z,1.29
2023-01-18T16:17:04.855Z,1.23
2023-01-18T16:19:35.206Z,1.25
2023-01-18T16:22:05.022Z,1.01
2023-01-18T16:24:46.937Z,0.98
2023-01-18T16:27:19.094Z,0.94
2023-01-18T16:29:59.746Z,0.84
2023-01-18T16:32:29.781Z,0.97
2023-01-18T16:35:00.422Z,0.64
2023-01-18T16:37:27.906Z,0.76
2023-01-18T16:39:55.473Z,0.86
2023-01-18T16:42:29.612Z,0.89
2023-01-18T16:45:00.365Z,0.75
2023-01-18T16:47:27.349Z,0.57
2023-01-18T16:49:54.304Z,0.58
2023-01-18T16:52:21.680Z,0.61
2023-01-18T16:54:48.683Z,0.66
2023-01-18T16:57:22.042Z,0.61
2023-01-18T16:59:50.153Z,0.64
2023-01-18T17:02:17.291Z,0.64
2023-01-18T17:04:45.555Z,0.68
2023-01-18T17:07:12.940Z,0.64
2023-01-18T17:09:48.405Z,0.76
2023-01-18T17:12:16.334Z,0.71
2023-01-18T17:14:43.293Z,0.37
2023-01-18T17:17:10.982Z,0.46
2023-01-18T17:19:38.290Z,0.49
2023-01-18T17:22:06.576Z,0.31
2023-01-18T17:24:34.044Z,0.39
2023-01-18T17:27:01.451Z,0.45
2023-01-18T17:29:28.878Z,0.45
2023-01-18T17:31:55.888Z,0.53
2023-01-18T17:34:28.448Z,0.47
2023-01-18T17:36:59.763Z,0.52
2023-01-18T17:39:42.647Z,0.49
2023-01-18T17:42:22.395Z,0.48
2023-01-18T17:45:02.550Z,0.56
2023-01-18T17:47:35.203Z,0.28
2023-01-18T17:50:08.893Z,0.29
2023-01-18T17:52:37.283Z,0.40
2023-01-18T17:55:05.231Z,0.38
2023-01-18T17:57:32.413Z,0.30
2023-01-18T17:59:59.447Z,0.11
2023-01-18T18:02:26.662Z,0.11
2023-01-18T18:04:53.686Z,0.24
2023-01-18T18:07:20.790Z,0.26
2023-01-18T18:09:47.753Z,0.25
2023-01-18T18:12:14.753Z,0.39
2023-01-18T18:14:41.746Z,0.35
2023-01-18T18:17:09.675Z,0.30
2023-01-18T18:19:36.661Z,0.21
2023-01-18T18:22:03.712Z,0.31
2023-01-18T18:24:30.752Z,0.47
2023-01-18T18:26:58.210Z,0.52
2023-01-18T18:29:25.222Z,0.25
2023-01-18T18:31:52.811Z,0.32
2023-01-18T18:34:19.901Z,0.42
2023-01-18T18:36:46.927Z,0.31
2023-01-18T18:39:13.980Z,0.30
2023-01-18T18:41:43.269Z,0.20
2023-01-18T18:44:10.873Z,0.37
2023-01-18T18:46:39.038Z,0.46
2023-01-18T18:49:07.018Z,0.36
2023-01-18T18:51:37.090Z,0.29
2023-01-18T18:54:05.138Z,0.34
2023-01-18T18:56:32.520Z,0.53
2023-01-18T18:58:59.503Z,0.49
2023-01-18T19:01:29.564Z,0.51
2023-01-18T19:03:57.771Z,0.56
2023-01-18T19:06:25.845Z,0.57
2023-01-18T19:08:53.453Z,0.33
2023-01-18T19:11:20.946Z,0.50
2023-01-18T19:13:49.326Z,0.41
2023-01-18T19:16:17.390Z,0.42
2023-01-18T19:18:44.430Z,0.47
2023-01-18T19:21:11.400Z,0.58
2023-01-18T19:23:38.501Z,0.62
2023-01-18T19:26:05.696Z,0.56
2023-01-18T19:28:32.834Z,0.33
2023-01-18T19:31:07.628Z,0.40
2023-01-18T19:33:34.814Z,0.39
2023-01-18T19:36:14.065Z,0.61
2023-01-18T19:38:46.527Z,0.65
2023-01-18T19:41:15.184Z,0.69
2023-01-18T19:43:43.034Z,0.78
2023-01-18T19:46:12.636Z,0.63
2023-01-18T19:48:40.408Z,0.74
2023-01-18T19:51:20.760Z,0.75
2023-01-18T19:53:49.058Z,0.57
2023-01-18T19:56:16.112Z,0.41
2023-01-18T19:58:43.079Z,0.66
2023-01-18T20:01:14.832Z,0.61
2023-01-18T20:03:48.132Z,0.78
2023-01-18T20:06:18.035Z,0.92
2023-01-18T20:08:45.601Z,0.95
2023-01-18T20:11:14.826Z,0.99
2023-01-18T20:13:47.269Z,0.70
2023-01-18T20:16:15.621Z,0.92
2023-01-18T20:18:42.754Z,1.01
2023-01-18T20:21:14.208Z,0.91
2023-01-18T20:23:43.830Z,0.90
2023-01-18T20:26:19.970Z,0.86
2023-01-18T20:28:56.062Z,0.80
2023-01-18T20:31:23.381Z,0.92
2023-01-18T20:33:50.949Z,0.92
2023-01-18T20:36:18.349Z,0.67
2023-01-18T20:38:45.280Z,0.92
2023-01-18T20:41:12.387Z,0.94
2023-01-18T20:43:40.336Z,0.82
2023-01-18T20:46:10.417Z,1.12
2023-01-18T20:48:38.896Z,1.25
2023-01-18T20:51:07.660Z,1.26
2023-01-18T20:53:34.818Z,1.18
2023-01-18T20:56:11.765Z,1.06
2023-01-18T20:58:41.400Z,1.19
2023-01-18T21:01:15.786Z,1.17
2023-01-18T21:03:51.703Z,0.85
2023-01-18T21:06:18.888Z,0.90
2023-01-18T21:08:45.900Z,1.06
2023-01-18T21:11:17.694Z,1.03
2023-01-18T21:13:44.664Z,1.16
2023-01-18T21:16:11.694Z,1.18
2023-01-18T21:18:39.515Z,1.04
2023-01-18T21:21:09.712Z,1.07
2023-01-18T21:23:39.654Z,1.02
2023-01-18T21:26:09.569Z,1.22
2023-01-18T21:28:36.948Z,1.13
2023-01-18T21:31:05.202Z,0.87
2023-01-18T21:33:32.629Z,0.95
2023-01-18T21:36:13.046Z,0.80
2023-01-18T21:38:40.143Z,1.17
2023-01-18T21:41:26.029Z,1.29
2023-01-18T21:44:12.708Z,1.14
2023-01-18T21:46:48.568Z,1.12
2023-01-18T21:49:51.978Z,1.16
2023-01-18T21:52:40.139Z,0.81
2023-01-18T21:55:07.562Z,1.05
2023-01-18T21:57:36.410Z,0.88
2023-01-18T22:00:05.027Z,1.01
2023-01-18T22:02:36.004Z,1.05
2023-01-18T22:05:04.158Z,1.18
2023-01-18T22:07:34.254Z,1.13
2023-01-18T22:10:06.599Z,1.05
2023-01-18T22:12:36.163Z,1.20
2023-01-18T22:15:05.012Z,1.14
2023-01-18T22:17:32.233Z,1.15
2023-01-18T22:19:59.928Z,1.14
2023-01-18T22:22:27.047Z,1.16
2023-01-18T22:24:54.246Z,1.01
2023-01-18T22:27:21.174Z,0.95
2023-01-18T22:29:48.237Z,1.01
2023-01-18T22:32:15.314Z,0.98
2023-01-18T22:34:42.271Z,1.22
2023-01-18T22:37:09.220Z,1.34
2023-01-18T22:39:36.183Z,1.16
2023-01-18T22:42:03.230Z,0.82
2023-01-18T22:44:30.407Z,1.07
2023-01-18T22:46:57.354Z,1.16
2023-01-18T22:49:24.376Z,1.20
2023-01-18T22:51:51.319Z,1.26
2023-01-18T22:54:22.625Z,1.27
2023-01-18T22:56:49.819Z,1.19
2023-01-18T22:59:16.910Z,1.17
2023-01-18T23:01:43.910Z,0.75
2023-01-18T23:04:11.395Z,1.15
2023-01-18T23:06:48.961Z,1.18
2023-01-18T23:09:17.617Z,1.06
2023-01-18T23:11:45.135Z,1.20
2023-01-18T23:14:30.951Z,0.88
2023-01-18T23:17:16.509Z,1.01
2023-01-18T23:19:43.567Z,1.15
2023-01-18T23:22:11.310Z,1.18
2023-01-18T23:24:39.288Z,1.16
2023-01-18T23:27:08.221Z,1.13
2023-01-18T23:29:35.241Z,1.12
2023-01-18T23:32:02.272Z,1.11
2023-01-18T23:34:29.425Z,1.18
2023-01-18T23:36:56.403Z,1.29
2023-01-18T23:39:42.041Z,1.31
2023-01-18T23:42:27.753Z,1.24
2023-01-18T23:45:13.585Z,1.34
2023-01-18T23:47:59.532Z,1.35
2023-01-18T23:50:45.490Z,1.28
2023-01-18T23:53:32.046Z,1.23
2023-01-18T23:56:00.082Z,1.05
2023-01-18T23:58:27.785Z,1.05
